Alabama A and M, Alabama
Current Conditions -  °F | °C
As of 5:15 AM on Wednesday 22 Oct 2014 (Local Time) from KMDQ Reporting Station
Clear Clear  
Wind Chill:   Ceiling: Unl
Heat Index:   Visibility: 10mi
Dew Point:   Wind: 0mph
Humidity: 87%   Direction: NA
Pressure: 30.14"   Gusts: NA
Location:  34.7869°N, 86.5719°W
Report Text: KMDQ 221015Z AUTO 00000KT 10SM CLR 05/03 A3014 RMK AO2
Loading
Personal Weather Stations






























Interactive Weather Map
Tropical Storm Tracking
New forecast layout! Learn more

10-Day Weather Forecast

Advertisements
Track Severe Weather on mobile